createdAt,value
2019-04-20T00:02:25.566Z,30.50
2019-04-20T00:04:56.981Z,30.50
2019-04-20T00:07:32.413Z,30.60
2019-04-20T00:10:06.257Z,30.60
2019-04-20T00:12:42.307Z,30.60
2019-04-20T00:15:03.097Z,30.70
2019-04-20T00:17:34.727Z,30.70
2019-04-20T00:20:15.540Z,30.70
2019-04-20T00:22:46.078Z,30.80
2019-04-20T00:25:16.963Z,30.80
2019-04-20T00:28:08.560Z,30.80
2019-04-20T00:30:47.994Z,30.80
2019-04-20T00:32:58.525Z,30.80
2019-04-20T00:35:20.919Z,30.90
2019-04-20T00:37:52.646Z,30.90
2019-04-20T00:40:23.699Z,31.00
2019-04-20T00:42:58.166Z,31.10
2019-04-20T00:45:31.515Z,31.10
2019-04-20T00:48:05.993Z,31.10
2019-04-20T00:50:44.613Z,31.20
2019-04-20T00:53:10.313Z,31.30
2019-04-20T00:55:34.219Z,31.40
2019-04-20T00:58:11.738Z,31.40
2019-04-20T01:01:01.488Z,31.40
2019-04-20T01:03:26.691Z,31.50
2019-04-20T01:06:02.244Z,31.60
2019-04-20T01:08:14.956Z,31.60
2019-04-20T01:10:50.176Z,31.70
2019-04-20T01:13:22.810Z,31.80
2019-04-20T01:15:56.940Z,31.90
2019-04-20T01:18:21.775Z,31.90
2019-04-20T01:20:53.554Z,31.90
2019-04-20T01:23:29.203Z,32.00
2019-04-20T01:26:02.033Z,32.10
2019-04-20T01:28:44.201Z,32.20
2019-04-20T01:31:12.547Z,32.20
2019-04-20T01:33:43.814Z,32.30
2019-04-20T01:36:21.060Z,32.40
2019-04-20T01:38:47.170Z,32.40
2019-04-20T01:41:05.946Z,32.50
2019-04-20T01:43:37.396Z,32.60
2019-04-20T01:46:13.145Z,32.70
2019-04-20T01:48:41.316Z,32.90
2019-04-20T01:51:17.516Z,32.90
2019-04-20T01:54:02.139Z,33.00
2019-04-20T01:56:32.926Z,33.10
2019-04-20T01:59:07.691Z,33.20
2019-04-20T02:01:27.173Z,33.30
2019-04-20T02:03:57.506Z,33.30
2019-04-20T02:06:30.463Z,33.40
2019-04-20T02:09:06.736Z,33.50
2019-04-20T02:11:37.719Z,33.60
2019-04-20T02:14:06.952Z,33.70
2019-04-20T02:16:42.708Z,33.70
2019-04-20T02:19:23.065Z,33.80
2019-04-20T02:21:55.376Z,33.80
2019-04-20T02:24:12.809Z,33.90
2019-04-20T02:26:43.037Z,34.00
2019-04-20T02:29:37.575Z,34.00
2019-04-20T02:34:55.019Z,34.20
2019-04-20T02:37:24.466Z,34.40
2019-04-20T02:39:55.816Z,34.40
2019-04-20T02:45:18.762Z,34.70
2019-04-20T02:47:32.099Z,34.80
2019-04-20T02:49:56.634Z,34.80
2019-04-20T02:52:38.080Z,34.80
2019-04-20T02:57:39.940Z,34.90
2019-04-20T03:02:23.539Z,35.10
2019-04-20T03:04:48.063Z,35.10
2019-04-20T03:07:25.458Z,35.10
2019-04-20T03:10:01.106Z,35.20
2019-04-20T03:12:39.111Z,35.20
2019-04-20T03:14:58.579Z,35.40
2019-04-20T03:17:39.085Z,35.50
2019-04-20T03:20:06.236Z,35.50
2019-04-20T03:23:05.946Z,35.60
2019-04-20T03:25:17.889Z,35.60
2019-04-20T03:27:46.122Z,35.70
2019-04-20T03:31:04.067Z,35.70
2019-04-20T03:33:23.856Z,35.80
2019-04-20T03:35:54.843Z,35.80
2019-04-20T03:38:07.557Z,35.80
2019-04-20T03:40:24.321Z,35.90
2019-04-20T03:42:44.603Z,36.00
2019-04-20T03:45:18.366Z,36.10
2019-04-20T03:48:00.245Z,36.20
2019-04-20T03:51:40.223Z,36.20
2019-04-20T03:54:06.860Z,36.30
2019-04-20T03:56:41.925Z,36.30
2019-04-20T04:02:10.010Z,36.40
2019-04-20T04:04:21.430Z,36.40
2019-04-20T04:06:44.389Z,36.40
2019-04-20T04:09:22.897Z,36.40
2019-04-20T04:11:56.019Z,36.40
2019-04-20T04:14:11.602Z,36.50
2019-04-20T04:19:21.543Z,36.70
2019-04-20T04:22:01.641Z,36.80
2019-04-20T04:24:32.661Z,36.90
2019-04-20T04:27:05.683Z,37.00
2019-04-20T04:29:45.913Z,37.00
2019-04-20T04:32:25.549Z,37.10
2019-04-20T04:34:44.435Z,37.20
2019-04-20T04:37:17.994Z,37.30
2019-04-20T04:39:55.960Z,37.40
2019-04-20T04:43:00.744Z,37.50
2019-04-20T04:45:12.847Z,37.60
2019-04-20T04:47:40.894Z,37.60
2019-04-20T04:50:16.294Z,37.70
2019-04-20T04:55:25.671Z,37.70
2019-04-20T04:57:47.385Z,37.70
2019-04-20T05:00:25.550Z,37.80
2019-04-20T05:02:55.564Z,37.90
2019-04-20T05:05:45.281Z,38.00
2019-04-20T05:08:08.901Z,38.00
2019-04-20T05:10:28.744Z,38.00
2019-04-20T05:12:59.083Z,38.10
2019-04-20T05:15:42.418Z,38.20
2019-04-20T05:18:20.570Z,38.30
2019-04-20T05:20:54.591Z,38.40
2019-04-20T05:23:20.498Z,38.50
2019-04-20T05:26:04.029Z,38.70
2019-04-20T05:28:24.031Z,38.80
2019-04-20T05:30:51.929Z,38.80
2019-04-20T05:33:27.754Z,38.90
2019-04-20T05:36:05.688Z,38.90
2019-04-20T05:38:47.023Z,39.00
2019-04-20T05:41:11.434Z,39.00
2019-04-20T05:43:42.859Z,39.10
2019-04-20T05:46:23.480Z,39.30
2019-04-20T05:48:50.888Z,39.30
2019-04-20T05:51:25.645Z,39.40
2019-04-20T05:53:50.406Z,39.40
2019-04-20T05:56:30.696Z,39.60
2019-04-20T05:58:56.584Z,39.60
2019-04-20T06:01:33.377Z,39.60
2019-04-20T06:03:59.379Z,39.60
2019-04-20T06:06:33.512Z,39.70
2019-04-20T06:09:11.988Z,39.70
2019-04-20T06:11:44.176Z,39.90
2019-04-20T06:14:00.229Z,40.00
2019-04-20T06:16:45.616Z,40.00
2019-04-20T06:19:24.278Z,40.00
2019-04-20T06:21:52.509Z,39.90
2019-04-20T06:24:26.491Z,40.00
2019-04-20T06:29:23.658Z,40.00
2019-04-20T06:31:59.238Z,40.10
2019-04-20T06:37:07.156Z,40.10
2019-04-20T06:39:40.613Z,40.10
2019-04-20T06:44:02.568Z,40.10
2019-04-20T06:46:36.267Z,40.00
2019-04-20T06:49:15.116Z,40.00
2019-04-20T06:51:40.341Z,40.00
2019-04-20T06:56:15.725Z,40.00
2019-04-20T06:58:49.788Z,39.90
2019-04-20T07:01:10.874Z,39.90
2019-04-20T07:08:49.329Z,40.00
2019-04-20T07:11:10.606Z,40.00
2019-04-20T07:13:27.679Z,40.00
2019-04-20T07:16:04.083Z,40.00
2019-04-20T07:18:42.545Z,40.00
2019-04-20T07:21:35.027Z,39.90
2019-04-20T07:23:49.763Z,40.00
2019-04-20T07:26:22.621Z,40.00
2019-04-20T07:28:53.062Z,40.10
2019-04-20T07:31:19.840Z,40.20
2019-04-20T07:33:56.817Z,40.30
2019-04-20T07:36:32.277Z,40.30
2019-04-20T07:39:04.267Z,40.30
2019-04-20T07:41:32.956Z,40.30
2019-04-20T07:44:19.948Z,40.30
2019-04-20T07:46:47.296Z,40.20
2019-04-20T07:49:10.343Z,40.20
2019-04-20T07:51:24.147Z,40.30
2019-04-20T07:54:20.923Z,40.20
2019-04-20T07:56:42.238Z,40.20
2019-04-20T07:58:57.074Z,40.30
2019-04-20T08:01:52.750Z,40.30
2019-04-20T08:04:18.447Z,40.40
2019-04-20T08:06:37.922Z,40.50
2019-04-20T08:09:14.729Z,40.60
2019-04-20T08:11:55.149Z,40.60
2019-04-20T08:14:31.825Z,40.70
2019-04-20T08:17:14.304Z,40.60
2019-04-20T08:19:30.157Z,40.50
2019-04-20T08:21:58.507Z,40.50
2019-04-20T08:24:27.639Z,40.50
2019-04-20T08:26:51.984Z,40.50
2019-04-20T08:29:31.675Z,40.50
2019-04-20T08:32:14.054Z,40.40
2019-04-20T08:34:53.779Z,40.40
2019-04-20T08:37:11.747Z,40.50
2019-04-20T08:39:57.189Z,40.60
2019-04-20T08:42:20.533Z,40.70
2019-04-20T08:45:00.062Z,40.60
2019-04-20T08:47:35.104Z,40.60
2019-04-20T08:50:05.104Z,40.60
2019-04-20T08:52:55.161Z,40.60
2019-04-20T08:55:05.196Z,40.60
2019-04-20T08:57:15.770Z,40.70
2019-04-20T08:59:48.252Z,40.70
2019-04-20T09:02:20.685Z,40.60
2019-04-20T09:04:58.309Z,40.60
2019-04-20T09:07:28.307Z,40.60
2019-04-20T09:10:18.746Z,40.60
2019-04-20T09:12:40.535Z,40.60
2019-04-20T09:14:59.426Z,40.70
2019-04-20T09:17:38.935Z,40.70
2019-04-20T09:20:10.603Z,40.70
2019-04-20T09:22:48.204Z,40.70
2019-04-20T09:27:48.507Z,40.70
2019-04-20T09:30:25.645Z,40.70
2019-04-20T09:33:06.836Z,40.70
2019-04-20T09:35:37.147Z,40.80
2019-04-20T09:38:12.274Z,40.70
2019-04-20T09:40:40.242Z,40.70
2019-04-20T09:42:57.928Z,40.70
2019-04-20T09:45:37.381Z,40.70
2019-04-20T09:48:03.388Z,40.70
2019-04-20T09:50:56.491Z,40.70
2019-04-20T09:53:19.777Z,40.70
2019-04-20T09:56:55.294Z,40.70
2019-04-20T09:59:25.106Z,40.70
2019-04-20T10:01:44.568Z,40.70
2019-04-20T10:04:07.814Z,40.70
2019-04-20T10:06:39.308Z,40.80
2019-04-20T10:09:11.593Z,40.80
2019-04-20T10:11:44.213Z,40.80
2019-04-20T10:14:14.426Z,40.70
2019-04-20T10:16:44.714Z,40.70
2019-04-20T10:19:20.565Z,40.60
2019-04-20T10:21:47.004Z,40.60
2019-04-20T10:24:18.788Z,40.50
2019-04-20T10:26:50.433Z,40.50
2019-04-20T10:29:21.654Z,40.50
2019-04-20T10:31:57.426Z,40.30
2019-04-20T10:34:24.196Z,40.20
2019-04-20T10:36:55.700Z,40.20
2019-04-20T10:39:28.675Z,40.10
2019-04-20T10:42:02.206Z,40.00
2019-04-20T10:44:30.878Z,39.90
2019-04-20T10:47:01.221Z,39.80
2019-04-20T10:49:31.523Z,39.70
2019-04-20T10:54:32.345Z,39.50
2019-04-20T10:57:03.518Z,39.40
2019-04-20T10:59:34.391Z,39.30
2019-04-20T11:02:05.579Z,39.20
2019-04-20T11:04:36.787Z,39.10
2019-04-20T11:07:08.214Z,39.00
2019-04-20T11:09:38.785Z,38.90
2019-04-20T11:12:10.349Z,38.80
2019-04-20T11:14:43.838Z,38.70
2019-04-20T11:17:12.510Z,38.60
2019-04-20T11:19:43.386Z,38.60
2019-04-20T11:22:14.560Z,38.50
2019-04-20T11:24:46.039Z,38.40
2019-04-20T11:27:16.390Z,38.30
2019-04-20T11:29:46.986Z,38.20
2019-04-20T11:32:18.052Z,38.10
2019-04-20T11:34:49.184Z,38.00
2019-04-20T11:37:19.586Z,37.90
2019-04-20T11:39:50.806Z,37.90
2019-04-20T11:42:21.712Z,37.80
2019-04-20T11:44:52.914Z,37.60
2019-04-20T11:47:23.328Z,37.50
2019-04-20T11:49:53.732Z,37.40
2019-04-20T11:52:25.416Z,37.30
2019-04-20T11:56:25.771Z,37.20
2019-04-20T11:58:53.135Z,37.10
2019-04-20T12:01:29.032Z,37.00
2019-04-20T12:04:02.832Z,36.90
2019-04-20T12:06:28.913Z,36.80
2019-04-20T12:09:01.056Z,36.80
2019-04-20T12:11:40.640Z,36.70
2019-04-20T12:14:03.056Z,36.70
2019-04-20T12:16:33.454Z,36.60
2019-04-20T12:19:04.315Z,36.50
2019-04-20T12:21:34.815Z,36.50
2019-04-20T12:24:06.632Z,36.40
2019-04-20T12:26:38.531Z,36.30
2019-04-20T12:29:09.824Z,36.30
2019-04-20T12:31:45.233Z,36.20
2019-04-20T12:34:12.715Z,36.20
2019-04-20T12:36:43.314Z,36.10
2019-04-20T12:39:15.023Z,36.10
2019-04-20T12:41:52.995Z,36.00
2019-04-20T12:44:17.528Z,36.00
2019-04-20T12:49:18.103Z,35.90
2019-04-20T12:51:54.739Z,35.90
2019-04-20T12:54:20.751Z,35.90
2019-04-20T12:56:52.622Z,35.80
2019-04-20T12:59:23.592Z,35.70
2019-04-20T13:01:53.648Z,35.70
2019-04-20T13:04:24.692Z,35.60
2019-04-20T13:06:55.333Z,35.60
2019-04-20T13:09:28.356Z,35.50
2019-04-20T13:12:05.366Z,35.50
2019-04-20T13:14:36.155Z,35.40
2019-04-20T13:17:06.336Z,35.40
2019-04-20T13:19:37.410Z,35.30
2019-04-20T13:22:07.916Z,35.20
2019-04-20T13:24:39.108Z,35.20
2019-04-20T13:27:09.916Z,35.10
2019-04-20T13:29:42.689Z,35.10
2019-04-20T13:32:13.900Z,35.00
2019-04-20T13:34:44.533Z,34.90
2019-04-20T13:37:15.909Z,34.80
2019-04-20T13:39:46.897Z,34.80
2019-04-20T13:42:22.676Z,34.80
2019-04-20T13:44:48.902Z,34.80
2019-04-20T13:47:19.168Z,34.90
2019-04-20T13:49:49.472Z,34.90
2019-04-20T13:52:20.618Z,34.90
2019-04-20T13:54:51.991Z,35.00
2019-04-20T13:57:23.922Z,35.00
2019-04-20T13:59:55.965Z,35.00
2019-04-20T14:02:27.614Z,35.00
2019-04-20T14:05:00.225Z,35.10
2019-04-20T14:07:31.481Z,35.10
2019-04-20T14:10:01.893Z,35.10
2019-04-20T14:12:36.893Z,35.10
2019-04-20T14:15:04.966Z,35.00
2019-04-20T14:17:35.204Z,35.00
2019-04-20T14:20:11.856Z,35.00
2019-04-20T14:22:38.918Z,35.00
2019-04-20T14:25:11.233Z,34.90
2019-04-20T14:27:42.581Z,34.90
2019-04-20T14:30:13.508Z,34.90
2019-04-20T14:32:44.954Z,34.90
2019-04-20T14:35:16.685Z,34.80
2019-04-20T14:37:47.826Z,34.80
2019-04-20T14:40:18.731Z,34.80
2019-04-20T14:42:52.031Z,34.80
2019-04-20T14:45:22.683Z,34.70
2019-04-20T14:47:53.958Z,34.60
2019-04-20T14:50:25.525Z,34.70
2019-04-20T14:52:55.819Z,34.60
2019-04-20T14:55:26.190Z,34.60
2019-04-20T14:57:57.802Z,34.60
2019-04-20T15:00:32.099Z,34.60
2019-04-20T15:03:03.934Z,34.50
2019-04-20T15:05:34.985Z,34.50
2019-04-20T15:08:05.397Z,34.40
2019-04-20T15:10:37.119Z,34.40
2019-04-20T15:13:08.482Z,34.40
2019-04-20T15:15:38.953Z,34.40
2019-04-20T15:18:11.392Z,34.30
2019-04-20T15:20:44.132Z,34.30
2019-04-20T15:23:17.339Z,34.30
2019-04-20T15:25:48.625Z,34.20
2019-04-20T15:28:19.004Z,34.20
2019-04-20T15:30:49.993Z,34.20
2019-04-20T15:33:21.021Z,34.20
2019-04-20T15:35:52.488Z,34.10
2019-04-20T15:38:23.002Z,34.10
2019-04-20T15:40:53.397Z,34.10
2019-04-20T15:43:26.356Z,34.10
2019-04-20T15:45:55.430Z,34.10
2019-04-20T15:48:25.982Z,34.10
2019-04-20T15:50:56.361Z,34.00
2019-04-20T15:53:26.730Z,34.00
2019-04-20T15:55:57.596Z,34.00
2019-04-20T15:58:28.194Z,34.00
2019-04-20T16:00:58.905Z,34.00
2019-04-20T16:03:32.953Z,34.00
2019-04-20T16:06:05.376Z,34.00
2019-04-20T16:08:38.531Z,33.90
2019-04-20T16:11:09.129Z,33.90
2019-04-20T16:13:44.146Z,33.90
2019-04-20T16:16:12.120Z,33.90
2019-04-20T16:18:43.224Z,33.80
2019-04-20T16:21:20.202Z,33.80
2019-04-20T16:23:46.558Z,33.80
2019-04-20T16:26:19.444Z,33.70
2019-04-20T16:28:50.225Z,33.80
2019-04-20T16:31:20.652Z,33.70
2019-04-20T16:33:53.617Z,33.70
2019-04-20T16:36:22.838Z,33.70
2019-04-20T16:38:53.589Z,33.70
2019-04-20T16:41:24.293Z,33.60
2019-04-20T16:43:55.397Z,33.60
2019-04-20T16:46:25.978Z,33.60
2019-04-20T16:48:56.982Z,33.60
2019-04-20T16:51:27.391Z,33.60
2019-04-20T16:53:57.666Z,33.60
2019-04-20T16:56:28.673Z,33.50
2019-04-20T16:59:03.987Z,33.50
2019-04-20T17:01:31.685Z,33.50
2019-04-20T17:04:07.862Z,33.50
2019-04-20T17:06:35.926Z,33.50
2019-04-20T17:09:09.115Z,33.40
2019-04-20T17:11:39.655Z,33.40
2019-04-20T17:14:10.529Z,33.30
2019-04-20T17:16:41.908Z,33.30
2019-04-20T17:19:13.372Z,33.30
2019-04-20T17:21:44.540Z,33.30
2019-04-20T17:24:15.410Z,33.30
2019-04-20T17:26:47.215Z,33.20
2019-04-20T17:29:19.959Z,33.20
2019-04-20T17:31:51.489Z,33.20
2019-04-20T17:34:36.467Z,33.10
2019-04-20T17:36:54.576Z,33.10
2019-04-20T17:39:33.933Z,33.10
2019-04-20T17:42:12.910Z,33.10
2019-04-20T17:44:41.261Z,33.10
2019-04-20T17:47:20.480Z,33.00
2019-04-20T17:49:51.369Z,33.00
2019-04-20T17:52:28.093Z,33.00
2019-04-20T17:54:37.635Z,32.90
2019-04-20T17:57:09.405Z,32.90
2019-04-20T17:59:44.837Z,32.90
2019-04-20T18:02:23.738Z,32.90
2019-04-20T18:05:17.463Z,32.90
2019-04-20T18:07:42.096Z,32.80
2019-04-20T18:10:16.316Z,32.80
2019-04-20T18:12:31.143Z,32.80
2019-04-20T18:15:18.265Z,32.70
2019-04-20T18:17:40.351Z,32.70
2019-04-20T18:20:00.926Z,32.70
2019-04-20T18:22:31.817Z,32.60
2019-04-20T18:25:25.130Z,32.60
2019-04-20T18:27:53.132Z,32.60
2019-04-20T18:30:23.668Z,32.60
2019-04-20T18:32:41.581Z,32.60
2019-04-20T18:35:14.006Z,32.50
2019-04-20T18:37:52.484Z,32.60
2019-04-20T18:40:26.924Z,32.50
2019-04-20T18:42:57.203Z,32.50
2019-04-20T18:45:33.686Z,32.50
2019-04-20T18:48:11.733Z,32.40
2019-04-20T18:50:30.569Z,32.40
2019-04-20T18:52:56.330Z,32.40
2019-04-20T18:55:36.959Z,32.40
2019-04-20T18:57:59.254Z,32.40
2019-04-20T19:00:33.874Z,32.40
2019-04-20T19:03:09.727Z,32.40
2019-04-20T19:05:34.009Z,32.30
2019-04-20T19:10:57.570Z,32.30
2019-04-20T19:13:32.955Z,32.30
2019-04-20T19:16:13.359Z,32.30
2019-04-20T19:18:50.690Z,32.30
2019-04-20T19:21:04.945Z,32.20
2019-04-20T19:23:36.591Z,32.30
2019-04-20T19:26:11.916Z,32.20
2019-04-20T19:28:46.338Z,32.20
2019-04-20T19:31:28.065Z,32.20
2019-04-20T19:34:02.133Z,32.10
2019-04-20T19:36:24.476Z,32.10
2019-04-20T19:39:01.806Z,32.10
2019-04-20T19:41:28.654Z,32.00
2019-04-20T19:44:03.968Z,32.00
2019-04-20T19:46:55.100Z,32.00
2019-04-20T19:49:01.951Z,31.90
2019-04-20T19:51:49.335Z,31.90
2019-04-20T19:54:20.221Z,31.90
2019-04-20T19:56:44.213Z,31.90
2019-04-20T19:59:11.172Z,31.80
2019-04-20T20:01:31.699Z,31.80
2019-04-20T20:04:06.073Z,31.70
2019-04-20T20:06:40.076Z,31.70
2019-04-20T20:09:12.229Z,31.60
2019-04-20T20:11:42.946Z,31.60
2019-04-20T20:14:13.173Z,31.60
2019-04-20T20:17:06.904Z,31.50
2019-04-20T20:19:34.635Z,31.50
2019-04-20T20:21:59.078Z,31.40
2019-04-20T20:24:19.501Z,31.40
2019-04-20T20:26:56.300Z,31.40
2019-04-20T20:29:30.550Z,31.30
2019-04-20T20:32:07.269Z,31.30
2019-04-20T20:34:30.892Z,31.30
2019-04-20T20:37:00.460Z,31.30
2019-04-20T20:39:32.586Z,31.30
2019-04-20T20:42:15.403Z,31.30
2019-04-20T20:44:42.928Z,31.30
2019-04-20T20:47:31.411Z,31.30
2019-04-20T20:50:05.886Z,31.20
2019-04-20T20:52:29.253Z,31.20
2019-04-20T20:54:51.886Z,31.20
2019-04-20T20:57:18.503Z,31.20
2019-04-20T20:59:54.406Z,31.20
2019-04-20T21:02:23.635Z,31.20
2019-04-20T21:04:47.852Z,31.20
2019-04-20T21:07:18.500Z,31.20
2019-04-20T21:09:48.699Z,31.10
2019-04-20T21:12:21.567Z,31.10
2019-04-20T21:14:53.024Z,31.10
2019-04-20T21:17:26.088Z,31.10
2019-04-20T21:20:12.641Z,31.00
2019-04-20T21:22:44.787Z,31.00
2019-04-20T21:24:59.136Z,30.90
2019-04-20T21:27:29.781Z,30.80
2019-04-20T21:30:03.179Z,30.80
2019-04-20T21:32:38.770Z,30.70
2019-04-20T21:35:07.237Z,30.70
2019-04-20T21:37:36.919Z,30.70
2019-04-20T21:40:21.663Z,30.60
2019-04-20T21:42:48.187Z,30.60
2019-04-20T21:47:44.795Z,30.50
2019-04-20T21:50:34.235Z,30.60
2019-04-20T21:52:52.015Z,30.50
2019-04-20T21:55:19.961Z,30.50
2019-04-20T21:57:53.919Z,30.40
2019-04-20T22:00:28.468Z,30.40
2019-04-20T22:03:00.268Z,30.40
2019-04-20T22:05:26.785Z,30.30
2019-04-20T22:08:03.267Z,30.40
2019-04-20T22:10:31.517Z,30.30
2019-04-20T22:13:01.415Z,30.30
2019-04-20T22:15:34.931Z,30.30
2019-04-20T22:18:09.131Z,30.30
2019-04-20T22:20:50.982Z,30.30
2019-04-20T22:23:23.164Z,30.30
2019-04-20T22:25:55.394Z,30.30
2019-04-20T22:28:11.983Z,30.30
2019-04-20T22:30:42.110Z,30.30
2019-04-20T22:33:16.622Z,30.20
2019-04-20T22:35:53.010Z,30.20
2019-04-20T22:38:19.208Z,30.20
2019-04-20T22:40:49.966Z,30.20
2019-04-20T22:43:26.181Z,30.20
2019-04-20T22:45:54.006Z,30.20
2019-04-20T22:48:25.016Z,30.20
2019-04-20T22:51:17.235Z,30.20
2019-04-20T22:53:38.581Z,30.20
2019-04-20T22:56:22.805Z,30.20
2019-04-20T22:58:43.497Z,30.20
2019-04-20T23:01:14.342Z,30.20
2019-04-20T23:03:34.626Z,30.20
2019-04-20T23:06:04.977Z,30.20
2019-04-20T23:08:35.191Z,30.20
2019-04-20T23:11:09.334Z,30.20
2019-04-20T23:13:42.854Z,30.20
2019-04-20T23:16:09.294Z,30.30
2019-04-20T23:18:40.312Z,30.20
2019-04-20T23:21:13.984Z,30.30
2019-04-20T23:23:43.609Z,30.30
2019-04-20T23:26:18.086Z,30.40
2019-04-20T23:28:49.550Z,30.40
2019-04-20T23:31:20.636Z,30.50
2019-04-20T23:33:52.039Z,30.50
2019-04-20T23:36:30.630Z,30.60
2019-04-20T23:38:57.727Z,30.60
2019-04-20T23:41:25.992Z,30.70
2019-04-20T23:44:04.010Z,30.70
2019-04-20T23:46:31.583Z,30.70
2019-04-20T23:49:06.568Z,30.80
2019-04-20T23:51:53.992Z,30.90
2019-04-20T23:54:13.680Z,30.90
2019-04-20T23:56:39.782Z,31.00
2019-04-20T23:59:10.665Z,31.00
